Time;durP1;ratioP1;P1;durP2;ratioP2;P2;SDS_P1;SDS_P2;PMS_P1;PMS_P2;Temp;Humidity;BMP_temperature;BMP_pressure;BME280_temperature;BME280_humidity;BME280_pressure;Samples;Min_cycle;Max_cycle;Signal;HPM_P1;HPM_P2
2021/05/17 00:02:26;;;;;;;8.87;6.40;;;12.80;99.90;;;;;;5035584;28;20193;-68
2021/05/17 00:04:52;;;;;;;7.60;6.43;;;12.80;99.90;;;;;;5035739;28;20213;-67
2021/05/17 00:07:17;;;;;;;8.03;6.33;;;12.90;99.90;;;;;;5036146;28;20200;-68
2021/05/17 00:09:46;;;;;;;8.50;6.60;;;12.70;99.90;;;;;;5036321;28;20178;-68
2021/05/17 00:12:13;;;;;;;9.43;6.25;;;12.50;99.90;;;;;;5036056;28;20661;-68
2021/05/17 00:14:40;;;;;;;9.15;6.05;;;12.30;99.90;;;;;;5035967;28;20516;-68
2021/05/17 00:17:06;;;;;;;8.10;6.35;;;12.10;99.90;;;;;;5036481;28;20267;-67
2021/05/17 00:19:32;;;;;;;6.97;6.00;;;12.10;99.90;;;;;;5035873;28;20753;-67
2021/05/17 00:21:58;;;;;;;8.45;6.22;;;12.10;99.90;;;;;;5036195;28;20181;-67
2021/05/17 00:24:24;;;;;;;9.37;7.90;;;11.90;99.90;;;;;;5035657;28;20250;-65
2021/05/17 00:26:50;;;;;;;10.20;5.60;;;11.90;99.90;;;;;;5035847;28;20520;-71
2021/05/17 00:29:15;;;;;;;7.40;5.53;;;12.00;99.90;;;;;;5034631;28;20424;-71
2021/05/17 00:31:43;;;;;;;7.37;5.57;;;11.90;99.90;;;;;;5035530;28;20427;-71
2021/05/17 00:34:10;;;;;;;6.40;5.40;;;12.00;99.90;;;;;;5034157;28;20177;-71
2021/05/17 00:36:36;;;;;;;7.60;5.85;;;12.10;99.90;;;;;;5035380;28;20626;-71
2021/05/17 00:39:10;;;;;;;9.20;5.60;;;12.00;99.90;;;;;;5036159;28;20189;-69
2021/05/17 00:41:38;;;;;;;7.53;5.50;;;11.80;99.90;;;;;;5036092;28;20239;-69
2021/05/17 00:44:05;;;;;;;8.43;5.32;;;11.80;99.90;;;;;;5036268;28;20218;-69
2021/05/17 00:46:32;;;;;;;6.72;4.80;;;11.70;99.90;;;;;;5036337;28;20181;-70
2021/05/17 00:48:58;;;;;;;5.40;4.55;;;11.60;99.90;;;;;;5036044;28;20182;-70
2021/05/17 00:51:24;;;;;;;6.07;4.70;;;11.60;99.90;;;;;;5036137;28;20248;-70
2021/05/17 00:53:50;;;;;;;8.75;5.68;;;11.60;99.90;;;;;;5035635;28;20497;-69
2021/05/17 00:56:16;;;;;;;6.20;5.27;;;11.60;99.90;;;;;;5035957;28;20189;-70
2021/05/17 00:58:41;;;;;;;10.37;6.90;;;11.60;99.90;;;;;;5036113;28;20474;-67
2021/05/17 01:01:08;;;;;;;9.60;5.57;;;11.60;99.90;;;;;;5036016;28;20186;-69
2021/05/17 01:03:35;;;;;;;7.80;5.63;;;11.70;99.90;;;;;;5035687;28;20947;-69
2021/05/17 01:06:01;;;;;;;7.55;4.72;;;11.80;99.90;;;;;;5035548;28;20231;-69
2021/05/17 01:09:06;;;;;;;7.45;4.63;;;11.70;99.90;;;;;;5035887;28;20201;-70
2021/05/17 01:11:33;;;;;;;7.80;4.68;;;11.70;99.90;;;;;;5029367;28;20220;-69
2021/05/17 01:14:02;;;;;;;5.38;4.38;;;11.70;99.90;;;;;;5035320;28;20610;-69
2021/05/17 01:16:28;;;;;;;6.55;4.60;;;11.70;99.90;;;;;;5017901;28;20189;-69
2021/05/17 01:18:54;;;;;;;7.13;4.22;;;11.80;99.90;;;;;;5050897;28;20287;-69
2021/05/17 01:21:22;;;;;;;5.33;3.93;;;11.80;99.90;;;;;;5035978;28;20213;-69
2021/05/17 01:23:55;;;;;;;6.20;4.63;;;11.70;99.90;;;;;;5050625;28;20468;-69
2021/05/17 01:26:28;;;;;;;9.27;4.75;;;11.60;99.90;;;;;;5035848;28;20193;-69
2021/05/17 01:29:00;;;;;;;6.00;5.40;;;11.40;99.90;;;;;;5035862;28;20192;-69
2021/05/17 01:31:26;;;;;;;7.20;4.90;;;11.20;99.90;;;;;;5035456;28;20628;-67
2021/05/17 01:33:52;;;;;;;9.50;4.90;;;10.90;99.90;;;;;;5035294;28;20185;-67
2021/05/17 01:36:19;;;;;;;9.88;4.60;;;10.80;99.90;;;;;;5035576;28;20209;-67
2021/05/17 01:38:47;;;;;;;6.43;4.95;;;10.70;99.90;;;;;;5035249;28;20193;-67
2021/05/17 01:41:15;;;;;;;5.60;4.63;;;10.80;99.90;;;;;;5035379;28;20250;-67
2021/05/17 01:43:46;;;;;;;8.05;4.88;;;11.20;99.90;;;;;;5035253;28;20223;-67
2021/05/17 01:46:20;;;;;;;5.80;4.35;;;11.30;99.90;;;;;;5035357;28;20602;-67
2021/05/17 01:48:45;;;;;;;5.65;4.30;;;11.40;99.90;;;;;;5035545;28;20508;-67
2021/05/17 01:51:19;;;;;;;9.90;4.90;;;11.40;99.90;;;;;;5035173;28;20181;-67
2021/05/17 01:53:49;;;;;;;6.93;4.38;;;11.40;99.90;;;;;;5033986;28;20546;-69
2021/05/17 01:56:16;;;;;;;7.07;4.47;;;11.60;99.90;;;;;;5034796;28;20189;-69
2021/05/17 01:58:42;;;;;;;7.90;4.60;;;11.60;99.90;;;;;;5034605;28;20177;-69
2021/05/17 02:01:11;;;;;;;7.95;5.78;;;11.50;99.90;;;;;;5034544;28;20208;-69
2021/05/17 02:03:38;;;;;;;7.75;4.88;;;11.50;99.90;;;;;;5033869;28;20213;-72
2021/05/17 02:06:08;;;;;;;6.45;4.43;;;11.50;99.90;;;;;;5016419;28;20204;-71
2021/05/17 02:08:39;;;;;;;6.43;4.25;;;11.40;99.90;;;;;;5033422;28;20232;-71
2021/05/17 02:11:13;;;;;;;7.43;4.50;;;11.30;99.90;;;;;;5034120;28;20636;-67
2021/05/17 02:13:40;;;;;;;5.45;4.72;;;11.30;99.90;;;;;;5033780;28;20609;-71
2021/05/17 02:16:06;;;;;;;4.65;3.90;;;11.20;99.90;;;;;;5033519;28;20174;-72
2021/05/17 02:18:35;;;;;;;9.63;4.97;;;11.20;99.90;;;;;;5033766;28;20246;-71
2021/05/17 02:21:01;;;;;;;5.38;4.72;;;11.10;99.90;;;;;;5034174;28;20503;-69
2021/05/17 02:23:27;;;;;;;8.02;3.95;;;11.00;99.90;;;;;;5033862;28;20593;-69
2021/05/17 02:25:52;;;;;;;5.63;3.43;;;11.00;99.90;;;;;;5033853;28;20223;-71
2021/05/17 02:28:18;;;;;;;9.63;6.20;;;10.90;99.90;;;;;;5033592;28;20235;-71
2021/05/17 02:30:47;;;;;;;4.82;3.88;;;10.80;99.90;;;;;;5033546;28;20200;-71
2021/05/17 02:33:13;;;;;;;6.18;4.68;;;10.80;99.90;;;;;;5049156;28;20231;-71
2021/05/17 02:35:40;;;;;;;14.15;5.20;;;10.80;99.90;;;;;;5034562;28;20185;-67
2021/05/17 02:38:07;;;;;;;4.00;3.30;;;10.70;99.90;;;;;;5035503;28;20196;-67
2021/05/17 02:40:36;;;;;;;5.65;4.10;;;10.70;99.90;;;;;;5036111;28;20181;-68
2021/05/17 02:43:10;;;;;;;7.15;4.07;;;10.50;99.90;;;;;;5035655;28;20588;-67
2021/05/17 02:45:37;;;;;;;7.93;4.90;;;10.50;99.90;;;;;;5035539;28;20212;-67
2021/05/17 02:48:05;;;;;;;5.00;4.30;;;10.50;99.90;;;;;;5035745;28;20549;-67
2021/05/17 02:50:34;;;;;;;6.65;4.13;;;10.40;99.90;;;;;;5036082;28;20283;-67
2021/05/17 02:53:01;;;;;;;6.22;3.88;;;10.40;99.90;;;;;;5036222;28;20261;-67
2021/05/17 02:55:32;;;;;;;7.28;4.82;;;10.50;99.90;;;;;;5034254;28;20644;-67
2021/05/17 02:58:06;;;;;;;5.25;4.75;;;10.60;99.90;;;;;;5035775;28;20503;-67
2021/05/17 03:00:34;;;;;;;5.05;4.50;;;10.60;99.90;;;;;;5036185;28;20189;-67
2021/05/17 03:03:12;;;;;;;3.88;3.47;;;10.70;99.90;;;;;;5033523;28;20497;-66
2021/05/17 03:05:40;;;;;;;7.00;4.15;;;10.60;99.90;;;;;;5033041;28;20294;-65
2021/05/17 03:08:19;;;;;;;10.32;4.30;;;10.50;99.90;;;;;;5033460;28;20176;-65
2021/05/17 03:10:46;;;;;;;7.22;4.22;;;10.40;99.90;;;;;;5033417;28;20185;-65
2021/05/17 03:13:17;;;;;;;6.15;4.50;;;10.50;99.90;;;;;;5033404;28;20204;-65
2021/05/17 03:15:45;;;;;;;6.07;4.20;;;10.60;99.90;;;;;;5033266;28;20185;-66
2021/05/17 03:18:11;;;;;;;8.35;4.88;;;10.50;99.90;;;;;;5033422;28;20250;-66
2021/05/17 03:20:38;;;;;;;8.98;4.95;;;10.50;99.90;;;;;;5033064;28;20496;-66
2021/05/17 03:23:09;;;;;;;9.18;4.60;;;10.40;99.90;;;;;;5032882;28;20195;-66
2021/05/17 03:25:36;;;;;;;6.25;4.55;;;10.40;99.90;;;;;;5032855;28;20532;-66
2021/05/17 03:28:02;;;;;;;6.90;5.93;;;10.50;99.90;;;;;;5032785;28;20181;-66
2021/05/17 03:30:27;;;;;;;6.37;4.50;;;10.60;99.90;;;;;;5032640;28;20576;-66
2021/05/17 03:32:53;;;;;;;6.40;5.23;;;10.60;99.90;;;;;;5032631;28;20416;-66
2021/05/17 03:35:21;;;;;;;10.40;4.90;;;10.60;99.90;;;;;;5032262;28;20189;-66
2021/05/17 03:38:05;;;;;;;7.22;4.35;;;10.70;99.90;;;;;;5032587;28;20473;-66
2021/05/17 03:40:31;;;;;;;5.20;4.63;;;10.60;99.90;;;;;;5032342;28;20239;-66
2021/05/17 03:42:57;;;;;;;5.70;4.63;;;10.60;99.90;;;;;;5032677;28;20215;-66
2021/05/17 03:45:22;;;;;;;4.93;4.43;;;10.60;99.90;;;;;;5032479;28;20210;-66
2021/05/17 03:47:48;;;;;;;7.50;5.30;;;10.60;99.90;;;;;;5032561;28;20177;-66
2021/05/17 03:50:14;;;;;;;9.13;5.00;;;10.60;99.90;;;;;;5033142;28;20177;-66
2021/05/17 03:52:40;;;;;;;6.65;5.45;;;10.70;99.90;;;;;;5032623;28;20178;-65
2021/05/17 03:55:06;;;;;;;8.02;5.35;;;10.80;99.90;;;;;;5032445;28;20220;-68
2021/05/17 03:57:32;;;;;;;6.10;4.80;;;10.80;99.90;;;;;;5032440;28;20189;-66
2021/05/17 03:59:58;;;;;;;9.43;5.50;;;11.00;99.90;;;;;;5032440;28;20186;-66
2021/05/17 04:02:24;;;;;;;7.90;5.87;;;11.20;99.90;;;;;;5032503;28;20182;-67
2021/05/17 04:15:16;;;;;;;6.03;5.20;;;12.80;99.90;;;;;;5032540;28;20706;-67
2021/05/17 04:17:42;;;;;;;5.00;4.50;;;13.50;99.90;;;;;;5034021;28;20587;-67
2021/05/17 04:20:08;;;;;;;5.70;4.20;;;13.60;1.00;;;;;;5036110;28;20190;-68
2021/05/17 04:22:33;;;;;;;12.65;5.30;;;14.20;1.00;;;;;;5036014;28;20197;-68
2021/05/17 04:24:59;;;;;;;6.50;4.10;;;15.30;1.00;;;;;;5036201;28;20209;-69
2021/05/17 04:27:28;;;;;;;4.43;4.03;;;15.90;99.90;;;;;;5036297;28;20519;-68
2021/05/17 04:29:53;;;;;;;4.03;3.55;;;16.80;1.00;;;;;;5036111;28;20188;-68
2021/05/17 04:32:19;;;;;;;4.37;3.10;;;17.60;99.90;;;;;;5035950;28;20536;-68
2021/05/17 04:34:44;;;;;;;3.70;3.20;;;17.20;5.20;;;;;;5035783;28;20181;-67
2021/05/17 04:37:10;;;;;;;3.20;2.90;;;16.80;1.00;;;;;;5036157;28;20177;-67
2021/05/17 04:39:35;;;;;;;5.07;4.03;;;16.10;1.00;;;;;;5035753;28;20178;-67
2021/05/17 04:42:01;;;;;;;3.90;2.80;;;15.70;99.90;;;;;;5035906;28;20567;-67
2021/05/17 04:44:27;;;;;;;4.40;3.40;;;15.70;55.70;;;;;;5035423;28;20214;-67
2021/05/17 04:46:53;;;;;;;6.10;3.53;;;15.40;1.00;;;;;;5035914;28;20182;-67
2021/05/17 04:49:18;;;;;;;3.47;3.17;;;15.20;1.00;;;;;;5035891;28;20256;-67
2021/05/17 04:51:44;;;;;;;3.60;3.00;;;16.20;99.90;;;;;;5035815;28;20216;-67
2021/05/17 04:54:10;;;;;;;4.93;3.43;;;17.80;1.00;;;;;;5035033;28;20184;-67
2021/05/17 04:56:35;;;;;;;4.03;3.63;;;18.80;1.00;;;;;;5050853;28;20185;-67
2021/05/17 04:59:01;;;;;;;5.10;3.20;;;19.80;1.00;;;;;;5035550;28;20201;-67
2021/05/17 05:01:27;;;;;;;5.43;3.90;;;21.80;66.60;;;;;;5035203;28;20181;-67
2021/05/17 05:03:52;;;;;;;4.13;3.60;;;23.20;1.00;;;;;;5035784;28;20643;-65
2021/05/17 05:06:18;;;;;;;6.33;3.97;;;23.50;1.00;;;;;;5046671;28;20177;-65
2021/05/17 05:08:43;;;;;;;5.73;3.80;;;22.50;1.00;;;;;;5045594;28;20272;-65
2021/05/17 05:11:09;;;;;;;4.40;3.67;;;21.60;1.00;;;;;;5035892;28;20260;-65
2021/05/17 05:13:34;;;;;;;4.80;4.20;;;22.30;1.00;;;;;;5035040;28;20177;-64
2021/05/17 05:16:00;;;;;;;6.30;4.27;;;23.50;1.00;;;;;;5049365;28;20246;-63
2021/05/17 05:18:26;;;;;;;4.63;3.80;;;24.70;1.00;;;;;;5070078;28;20173;-63
2021/05/17 05:20:51;;;;;;;7.00;4.67;;;24.90;1.00;;;;;;5054687;28;20268;-64
2021/05/17 05:23:18;;;;;;;4.37;3.97;;;24.60;1.00;;;;;;5064377;28;20972;-64
2021/05/17 05:28:42;;;;;;;15.73;12.03;;;22.70;1.00;;;;;;5073702;28;20566;-64
2021/05/17 05:31:15;;;;;;;7.30;4.50;;;20.90;1.00;;;;;;5072942;28;20439;-65
2021/05/17 05:33:41;;;;;;;8.83;4.47;;;19.90;99.90;;;;;;5074335;28;20437;-65
2021/05/17 05:36:07;;;;;;;5.50;4.90;;;18.70;1.00;;;;;;5073406;28;20762;-65
2021/05/17 05:38:32;;;;;;;9.37;5.70;;;17.90;99.90;;;;;;5053669;28;20193;-63
2021/05/17 05:40:58;;;;;;;5.17;4.33;;;17.70;1.00;;;;;;5034083;28;20193;-65
2021/05/17 05:43:23;;;;;;;5.97;4.90;;;17.40;1.00;;;;;;5033933;28;20185;-66
2021/05/17 05:45:50;;;;;;;9.50;5.23;;;17.30;1.00;;;;;;5033899;28;20192;-59
2021/05/17 05:48:17;;;;;;;7.27;4.87;;;17.80;99.90;;;;;;5041853;28;20175;-63
2021/05/17 05:50:46;;;;;;;8.90;5.10;;;17.70;1.00;;;;;;5074133;28;20419;-62
2021/05/17 05:53:12;;;;;;;9.70;8.77;;;17.40;1.00;;;;;;5073832;28;20506;-64
2021/05/17 05:55:37;;;;;;;5.30;4.57;;;17.10;99.90;;;;;;5073481;28;20769;-65
2021/05/17 05:58:03;;;;;;;8.10;4.83;;;16.60;1.00;;;;;;5073760;28;20430;-64
2021/05/17 06:00:31;;;;;;;5.00;4.17;;;16.40;1.00;;;;;;5052708;28;20275;-64
2021/05/17 06:02:57;;;;;;;6.03;4.70;;;16.30;99.90;;;;;;5051907;28;20185;-63
2021/05/17 06:05:23;;;;;;;7.20;4.87;;;16.20;99.90;;;;;;5053168;28;20467;-63
2021/05/17 06:07:50;;;;;;;7.20;4.50;;;16.30;99.90;;;;;;5052469;28;20427;-63
2021/05/17 06:10:15;;;;;;;6.47;4.75;;;16.50;1.00;;;;;;5053160;28;20962;-63
2021/05/17 06:12:41;;;;;;;5.97;4.33;;;16.50;96.70;;;;;;5053125;28;20280;-63
2021/05/17 06:15:08;;;;;;;5.53;4.93;;;16.50;99.90;;;;;;5052921;28;20253;-64
2021/05/17 06:17:35;;;;;;;7.17;4.10;;;16.40;99.90;;;;;;5053570;28;20435;-63
2021/05/17 06:20:00;;;;;;;8.10;5.22;;;16.40;1.00;;;;;;5054379;28;20474;-63
2021/05/17 06:22:28;;;;;;;6.53;4.93;;;16.30;1.00;;;;;;5052797;28;20217;-64
2021/05/17 06:24:55;;;;;;;6.25;5.45;;;15.70;99.90;;;;;;5052692;28;20197;-64
2021/05/17 06:27:21;;;;;;;8.55;5.97;;;16.20;99.90;;;;;;5054003;28;20211;-63
2021/05/17 06:29:47;;;;;;;6.65;5.15;;;17.30;1.00;;;;;;5053904;28;20291;-63
2021/05/17 06:32:14;;;;;;;6.87;5.70;;;17.40;99.90;;;;;;5054419;28;20234;-64
2021/05/17 06:34:40;;;;;;;7.13;5.00;;;17.20;1.00;;;;;;5053750;28;20435;-63
2021/05/17 06:37:07;;;;;;;9.03;5.57;;;17.00;1.00;;;;;;5053856;28;20188;-64
2021/05/17 06:39:32;;;;;;;7.73;5.60;;;16.60;1.00;;;;;;5052744;28;20969;-64
2021/05/17 06:41:58;;;;;;;6.20;5.10;;;16.80;1.00;;;;;;5053618;28;20442;-64
2021/05/17 06:44:24;;;;;;;8.03;5.80;;;16.70;1.00;;;;;;5053821;28;20251;-64
2021/05/17 06:46:50;;;;;;;8.83;5.20;;;17.60;1.00;;;;;;5054046;28;20196;-63
2021/05/17 06:49:16;;;;;;;6.60;5.37;;;20.20;99.90;;;;;;5053657;28;20231;-64
2021/05/17 06:51:41;;;;;;;6.13;5.53;;;22.40;1.00;;;;;;5053878;28;20423;-64
2021/05/17 06:54:09;;;;;;;7.97;5.50;;;22.40;1.00;;;;;;5053008;28;20176;-65
2021/05/17 06:56:52;;;;;;;5.93;4.67;;;21.30;1.00;;;;;;5053916;28;20180;-63
2021/05/17 06:59:19;;;;;;;6.90;5.00;;;20.30;1.00;;;;;;5053915;28;20430;-64
2021/05/17 07:01:45;;;;;;;6.13;5.27;;;18.90;99.90;;;;;;5053321;28;20455;-65
2021/05/17 07:04:15;;;;;;;6.03;5.23;;;18.50;1.00;;;;;;5052647;28;20458;-64
2021/05/17 07:06:47;;;;;;;4.33;3.90;;;18.80;1.00;;;;;;5052922;28;20766;-64
2021/05/17 07:12:08;;;;;;;5.30;4.80;;;18.00;24.30;;;;;;5052656;28;20458;-64
2021/05/17 07:14:33;;;;;;;7.67;4.97;;;18.50;1.00;;;;;;5051082;28;20431;-64
2021/05/17 07:16:59;;;;;;;8.23;5.20;;;19.60;99.90;;;;;;5051786;28;20495;-65
2021/05/17 07:19:25;;;;;;;5.87;5.00;;;22.30;1.00;;;;;;5053053;28;20273;-64
2021/05/17 07:24:34;;;;;;;6.03;4.57;;;25.70;1.00;;;;;;5032640;28;20284;-66
2021/05/17 07:27:00;;;;;;;6.23;4.37;;;26.50;1.00;;;;;;5032817;28;20859;-66
2021/05/17 07:29:26;;;;;;;6.20;4.10;;;25.90;1.00;;;;;;5032148;28;20174;-68
2021/05/17 07:31:51;;;;;;;5.00;4.07;;;26.70;1.00;;;;;;5032458;28;20414;-67
2021/05/17 07:34:18;;;;;;;6.13;3.57;;;26.50;1.00;;;;;;5032152;28;20425;-67
2021/05/17 07:36:46;;;;;;;5.83;4.53;;;24.70;1.00;;;;;;5033085;28;20177;-65
2021/05/17 07:39:12;;;;;;;4.63;3.93;;;22.50;1.00;;;;;;5048657;28;20436;-65
2021/05/17 07:41:38;;;;;;;4.93;4.13;;;20.60;1.00;;;;;;5032983;28;20436;-68
2021/05/17 07:44:05;;;;;;;8.23;4.60;;;19.00;99.90;;;;;;5032679;28;20490;-66
2021/05/17 07:46:31;;;;;;;5.40;4.73;;;18.90;1.00;;;;;;5033576;28;20498;-65
2021/05/17 07:49:07;;;;;;;5.03;4.27;;;19.10;99.90;;;;;;5032722;28;20427;-66
2021/05/17 07:51:33;;;;;;;5.90;4.20;;;19.00;99.90;;;;;;5032636;28;20177;-67
2021/05/17 07:53:59;;;;;;;5.33;3.60;;;19.00;99.90;;;;;;5036087;28;20876;-69
2021/05/17 07:56:25;;;;;;;4.30;3.87;;;19.10;1.00;;;;;;5035406;28;20526;-68
2021/05/17 07:58:51;;;;;;;4.10;3.70;;;18.60;99.90;;;;;;5036785;28;20265;-67
2021/05/17 08:01:17;;;;;;;4.77;3.47;;;18.90;99.90;;;;;;5051954;28;20186;-67
2021/05/17 08:03:43;;;;;;;4.43;3.30;;;18.80;99.90;;;;;;5035730;28;20435;-65
2021/05/17 08:06:09;;;;;;;3.00;2.57;;;18.40;1.00;;;;;;5052355;28;20496;-65
2021/05/17 08:08:35;;;;;;;5.47;2.77;;;18.20;99.90;;;;;;5056014;28;20747;-64
2021/05/17 08:11:02;;;;;;;3.87;2.27;;;18.60;99.90;;;;;;5055983;28;20493;-64
2021/05/17 08:13:28;;;;;;;3.63;2.10;;;18.60;99.90;;;;;;5036820;28;20525;-64
2021/05/17 08:15:54;;;;;;;5.40;2.17;;;17.90;99.90;;;;;;5033085;28;20547;-64
2021/05/17 08:18:20;;;;;;;5.43;2.83;;;17.50;99.90;;;;;;5034386;28;20578;-63
2021/05/17 08:20:45;;;;;;;3.30;2.10;;;17.50;1.00;;;;;;5035582;28;20967;-63
2021/05/17 08:23:15;;;;;;;4.00;2.43;;;17.10;1.00;;;;;;5064822;28;20194;-62
2021/05/17 08:25:40;;;;;;;6.17;2.40;;;17.10;1.00;;;;;;5075122;28;20269;-62
2021/05/17 08:28:06;;;;;;;3.00;2.17;;;17.30;1.00;;;;;;5075886;28;20791;-63
2021/05/17 08:30:40;;;;;;;2.60;1.80;;;17.60;99.90;;;;;;5074501;28;20191;-63
2021/05/17 08:33:06;;;;;;;3.60;2.23;;;18.00;99.90;;;;;;5074439;28;20613;-64
2021/05/17 08:35:31;;;;;;;5.27;2.30;;;18.10;99.90;;;;;;5075340;28;20433;-63
2021/05/17 08:37:57;;;;;;;5.27;1.80;;;18.30;49.80;;;;;;5073076;28;20172;-63
2021/05/17 08:40:26;;;;;;;3.13;1.90;;;18.30;1.00;;;;;;5035552;28;20209;-63
2021/05/17 08:42:56;;;;;;;3.33;2.53;;;18.80;24.30;;;;;;5035805;28;20253;-65
2021/05/17 08:45:23;;;;;;;3.60;2.10;;;19.30;1.00;;;;;;5036685;28;20536;-63
2021/05/17 08:47:48;;;;;;;2.77;1.80;;;19.40;1.00;;;;;;5055803;28;20412;-63
2021/05/17 08:50:14;;;;;;;5.37;1.97;;;19.20;1.00;;;;;;5055896;28;20472;-63
2021/05/17 08:52:42;;;;;;;3.63;1.97;;;19.10;1.00;;;;;;5054796;28;20267;-61
2021/05/17 08:55:09;;;;;;;4.70;2.33;;;18.50;1.00;;;;;;5055499;28;20189;-61
2021/05/17 08:57:35;;;;;;;2.70;1.70;;;18.30;1.00;;;;;;5056006;28;20548;-63
2021/05/17 09:00:02;;;;;;;2.63;2.40;;;18.40;1.00;;;;;;5055851;28;20931;-62
2021/05/17 09:02:30;;;;;;;2.23;1.90;;;18.10;1.00;;;;;;5055567;28;20473;-65
2021/05/17 09:05:18;;;;;;;3.80;2.10;;;17.30;25.50;;;;;;5054966;28;20455;-64
2021/05/17 09:07:48;;;;;;;6.73;2.63;;;17.20;22.10;;;;;;5055411;28;20441;-65
2021/05/17 09:10:20;;;;;;;2.47;2.03;;;17.20;99.90;;;;;;5055629;28;20417;-63
2021/05/17 09:13:04;;;;;;;2.57;2.17;;;18.10;75.30;;;;;;5041001;28;20459;-64
2021/05/17 09:15:33;;;;;;;4.53;2.03;;;19.00;1.00;;;;;;5052817;28;20573;-64
2021/05/17 09:18:02;;;;;;;4.37;2.30;;;18.90;1.00;;;;;;5054809;28;20441;-64
2021/05/17 09:20:38;;;;;;;4.10;2.40;;;19.50;1.00;;;;;;5055078;28;20427;-64
2021/05/17 09:23:33;;;;;;;9.40;3.43;;;19.80;1.00;;;;;;5065873;28;20450;-66
2021/05/17 09:26:11;;;;;;;4.57;2.50;;;20.30;1.00;;;;;;5068437;28;20442;-66
2021/05/17 09:28:38;;;;;;;3.40;2.40;;;19.40;1.00;;;;;;5075403;28;20425;-66
2021/05/17 09:31:10;;;;;;;2.93;2.30;;;19.70;1.00;;;;;;5075270;28;20418;-66
2021/05/17 09:33:47;;;;;;;4.20;2.40;;;19.90;1.00;;;;;;5075697;28;20735;-65
2021/05/17 09:36:37;;;;;;;2.23;2.03;;;20.30;1.00;;;;;;5074152;28;20426;-65
2021/05/17 09:39:17;;;;;;;2.83;2.50;;;20.20;1.00;;;;;;5075295;28;20505;-65
2021/05/17 09:41:56;;;;;;;2.37;1.90;;;20.50;1.00;;;;;;5075371;28;20426;-64
2021/05/17 09:44:28;;;;;;;5.60;2.87;;;19.70;1.00;;;;;;5074343;28;20946;-64
2021/05/17 09:47:04;;;;;;;4.03;3.70;;;19.00;1.00;;;;;;5074527;28;20890;-65
2021/05/17 09:49:49;;;;;;;4.97;2.33;;;19.10;1.00;;;;;;5075086;28;20898;-65
2021/05/17 09:52:23;;;;;;;3.20;1.80;;;18.60;1.00;;;;;;5075626;28;20414;-65
2021/05/17 09:54:49;;;;;;;2.50;2.27;;;18.30;1.00;;;;;;5074678;28;20425;-67
2021/05/17 09:57:26;;;;;;;4.10;3.40;;;18.00;97.00;;;;;;5075308;28;20453;-65
2021/05/17 09:59:54;;;;;;;4.53;2.77;;;17.60;99.90;;;;;;5052600;28;20188;-65
2021/05/17 10:02:43;;;;;;;4.27;3.00;;;17.60;99.90;;;;;;5051715;28;20453;-65
2021/05/17 10:05:22;;;;;;;4.70;4.27;;;17.90;99.90;;;;;;5055315;28;20809;-65
2021/05/17 10:07:50;;;;;;;4.70;3.30;;;18.10;99.90;;;;;;5055041;28;20901;-65
2021/05/17 10:10:17;;;;;;;6.10;2.97;;;17.90;99.90;;;;;;5057608;28;20423;-66
2021/05/17 10:12:43;;;;;;;8.00;3.23;;;18.00;99.90;;;;;;5056628;28;20447;-65
2021/05/17 10:15:15;;;;;;;4.50;2.90;;;18.40;99.90;;;;;;5055515;28;20431;-67
2021/05/17 10:17:42;;;;;;;3.53;2.73;;;19.00;99.90;;;;;;5055397;28;20481;-65
2021/05/17 10:20:13;;;;;;;4.60;3.03;;;19.70;99.90;;;;;;5055079;28;20441;-65
2021/05/17 10:22:40;;;;;;;5.57;2.43;;;20.10;1.00;;;;;;5061807;28;20422;-65
2021/05/17 10:25:08;;;;;;;2.77;2.53;;;20.40;1.00;;;;;;5074493;28;20477;-64
2021/05/17 10:27:46;;;;;;;2.97;2.20;;;20.20;1.00;;;;;;5074763;28;20426;-67
2021/05/17 10:30:12;;;;;;;5.50;2.40;;;20.30;1.00;;;;;;5074132;28;20437;-66
2021/05/17 10:32:51;;;;;;;4.07;2.73;;;20.20;1.00;;;;;;5074153;28;20418;-66
2021/05/17 10:35:19;;;;;;;2.33;1.90;;;19.80;1.00;;;;;;5074043;28;20465;-66
2021/05/17 10:37:47;;;;;;;2.90;2.10;;;19.10;1.00;;;;;;5074174;28;20430;-65
2021/05/17 10:40:38;;;;;;;1.90;1.50;;;18.30;25.80;;;;;;5074004;28;20442;-65
2021/05/17 10:43:14;;;;;;;1.67;1.57;;;17.60;99.90;;;;;;5073715;28;20434;-65
2021/05/17 10:48:29;;;;;;;1.80;1.70;;;16.80;1.00;;;;;;5063081;28;20439;-65
2021/05/17 10:51:18;;;;;;;1.80;1.70;;;16.50;99.90;;;;;;5051859;28;20426;-66
2021/05/17 10:53:53;;;;;;;2.70;1.60;;;16.10;1.00;;;;;;5052164;28;20431;-65
2021/05/17 10:57:26;;;;;;;2.20;2.00;;;16.30;1.00;;;;;;5053574;28;20488;-65
2021/05/17 11:02:33;;;;;;;3.38;1.77;;;16.70;99.90;;;;;;5037314;28;20427;-65
2021/05/17 11:05:18;;;;;;;1.88;1.70;;;16.60;99.90;;;;;;5054971;28;20212;-66
2021/05/17 11:07:48;;;;;;;2.65;1.90;;;16.60;99.90;;;;;;5054078;28;20278;-66
2021/05/17 11:10:25;;;;;;;3.20;2.90;;;17.00;1.00;;;;;;5057219;28;20176;-66
2021/05/17 11:13:30;;;;;;;2.80;1.67;;;17.30;1.00;;;;;;5046884;28;20470;-65
2021/05/17 11:16:06;;;;;;;2.80;1.70;;;17.80;99.90;;;;;;4992374;28;20468;-64
2021/05/17 11:18:39;;;;;;;1.63;1.40;;;18.30;34.90;;;;;;5029582;28;20432;-66
2021/05/17 11:21:22;;;;;;;2.60;1.47;;;18.70;99.90;;;;;;5034546;28;20464;-65
2021/05/17 11:23:51;;;;;;;3.13;1.27;;;19.50;1.00;;;;;;5067833;28;20422;-65
2021/05/17 11:26:19;;;;;;;1.30;1.07;;;19.60;99.90;;;;;;5074994;28;20441;-66
2021/05/17 11:28:48;;;;;;;1.40;1.27;;;19.20;99.90;;;;;;5079406;28;20422;-66
2021/05/17 11:33:57;;;;;;;1.50;1.20;;;18.50;1.00;;;;;;5078787;28;20414;-69
2021/05/17 11:36:33;;;;;;;2.37;1.10;;;18.60;99.90;;;;;;5078744;28;20438;-70
2021/05/17 11:39:08;;;;;;;1.33;0.80;;;18.50;99.90;;;;;;5078808;28;20402;-67
2021/05/17 11:41:44;;;;;;;3.80;1.87;;;18.50;99.90;;;;;;5078746;28;20761;-67
2021/05/17 11:44:13;;;;;;;2.10;1.03;;;18.60;99.90;;;;;;5079596;28;20442;-67
2021/05/17 11:46:47;;;;;;;1.60;1.20;;;18.30;99.90;;;;;;5078586;28;20441;-67
2021/05/17 11:49:16;;;;;;;3.33;1.37;;;17.90;99.90;;;;;;5077565;28;20423;-64
2021/05/17 11:51:46;;;;;;;2.43;1.20;;;18.10;99.90;;;;;;5077648;28;20422;-64
2021/05/17 11:54:12;;;;;;;1.60;1.50;;;18.60;99.90;;;;;;5079128;28;20422;-64
2021/05/17 11:56:49;;;;;;;2.00;1.80;;;18.80;1.00;;;;;;5068285;28;20422;-66
2021/05/17 11:59:17;;;;;;;2.53;1.60;;;18.00;99.90;;;;;;5056894;28;20181;-66
2021/05/17 12:01:45;;;;;;;2.07;1.50;;;18.00;99.90;;;;;;5057049;28;20435;-66
2021/05/17 12:04:22;;;;;;;2.07;1.80;;;18.00;1.00;;;;;;5056105;28;20455;-67
2021/05/17 12:06:51;;;;;;;1.60;1.50;;;18.10;99.90;;;;;;5056608;28;20422;-66
2021/05/17 12:09:38;;;;;;;2.40;1.50;;;18.40;99.90;;;;;;5056571;28;20883;-66
2021/05/17 12:12:12;;;;;;;2.63;1.70;;;17.90;52.90;;;;;;5055958;28;20435;-66
2021/05/17 12:14:46;;;;;;;2.90;1.80;;;18.00;99.90;;;;;;5056124;28;20917;-64
2021/05/17 12:17:13;;;;;;;1.80;1.50;;;18.30;1.00;;;;;;5056507;28;20434;-65
2021/05/17 12:19:41;;;;;;;1.60;1.50;;;18.80;1.00;;;;;;5056533;28;20423;-65
2021/05/17 12:22:10;;;;;;;2.40;1.30;;;18.70;99.90;;;;;;5058342;28;20447;-65
2021/05/17 12:24:36;;;;;;;3.43;1.93;;;19.30;99.90;;;;;;5075489;28;20473;-65
2021/05/17 12:27:05;;;;;;;2.77;1.90;;;19.80;99.90;;;;;;5076234;28;20423;-64
2021/05/17 12:29:53;;;;;;;2.00;1.80;;;20.00;15.20;;;;;;5076504;28;20509;-64
2021/05/17 12:32:39;;;;;;;2.80;2.20;;;19.90;68.60;;;;;;5076400;28;20415;-64
2021/05/17 12:35:13;;;;;;;2.80;1.97;;;19.50;99.90;;;;;;5076497;28;20407;-64
2021/05/17 12:37:59;;;;;;;3.70;2.30;;;19.50;92.70;;;;;;5076116;28;20510;-65
2021/05/17 12:40:26;;;;;;;1.87;1.67;;;19.40;99.90;;;;;;5076002;28;20430;-64
2021/05/17 12:43:08;;;;;;;2.57;2.17;;;19.00;97.70;;;;;;5076188;28;20437;-64
2021/05/17 12:45:36;;;;;;;2.60;1.60;;;18.90;99.90;;;;;;5074278;28;20887;-66
2021/05/17 12:48:08;;;;;;;5.10;1.77;;;18.90;99.90;;;;;;5076151;28;20875;-66
2021/05/17 12:50:34;;;;;;;2.60;2.00;;;19.00;99.90;;;;;;5059824;28;20427;-64
2021/05/17 12:53:06;;;;;;;1.77;1.57;;;19.60;99.90;;;;;;5055670;28;20453;-64
2021/05/17 12:55:46;;;;;;;3.00;2.13;;;19.90;33.00;;;;;;5055721;28;20419;-64
2021/05/17 12:58:13;;;;;;;2.03;1.83;;;20.00;27.00;;;;;;5047873;28;20439;-65
2021/05/17 13:01:00;;;;;;;2.10;1.90;;;20.20;1.00;;;;;;5055703;28;20431;-65
2021/05/17 13:03:26;;;;;;;2.80;2.03;;;20.50;1.00;;;;;;5045653;28;20443;-64
2021/05/17 13:06:07;;;;;;;1.70;1.60;;;21.20;1.00;;;;;;5055228;28;20605;-63
2021/05/17 13:08:36;;;;;;;3.10;2.37;;;21.50;1.00;;;;;;5056648;28;20176;-65
2021/05/17 13:11:06;;;;;;;3.30;2.43;;;21.10;1.00;;;;;;5055191;28;20423;-66
2021/05/17 13:13:59;;;;;;;2.93;2.23;;;20.80;1.00;;;;;;5055049;28;20427;-65
2021/05/17 13:16:34;;;;;;;3.73;1.93;;;20.40;1.00;;;;;;5055153;28;20431;-62
2021/05/17 13:19:10;;;;;;;1.80;1.70;;;19.90;1.00;;;;;;5055480;28;20498;-65
2021/05/17 13:21:46;;;;;;;3.50;2.67;;;19.80;1.00;;;;;;5055060;28;20437;-66
2021/05/17 13:25:18;;;;;;;3.13;2.40;;;19.80;1.00;;;;;;5055003;28;20466;-64
2021/05/17 13:30:02;;;;;;;3.10;2.60;;;19.40;32.10;;;;;;5055302;28;20774;-67
2021/05/17 13:32:29;;;;;;;3.17;2.60;;;19.40;99.90;;;;;;5055188;28;20777;-67
2021/05/17 13:34:55;;;;;;;3.20;2.90;;;19.40;69.30;;;;;;5054673;28;20423;-65